createdAt,value
2023-02-06T00:01:23.613Z,32.60
2023-02-06T00:03:51.561Z,32.42
2023-02-06T00:06:19.587Z,32.90
2023-02-06T00:08:47.768Z,28.42
2023-02-06T00:11:17.629Z,30.15
2023-02-06T00:13:47.256Z,30.15
2023-02-06T00:16:19.293Z,31.27
2023-02-06T00:18:47.590Z,33.45
2023-02-06T00:21:15.750Z,40.25
2023-02-06T00:23:43.628Z,33.40
2023-02-06T00:26:11.498Z,40.65
2023-02-06T00:28:39.426Z,33.85
2023-02-06T00:31:09.665Z,34.65
2023-02-06T00:33:37.700Z,34.75
2023-02-06T00:36:06.344Z,34.95
2023-02-06T00:38:34.597Z,34.63
2023-02-06T00:41:02.452Z,35.35
2023-02-06T00:43:30.604Z,33.28
2023-02-06T00:45:59.236Z,38.40
2023-02-06T00:48:28.660Z,33.83
2023-02-06T00:50:56.989Z,31.55
2023-02-06T00:53:24.862Z,31.33
2023-02-06T00:55:52.713Z,31.80
2023-02-06T00:58:20.559Z,34.22
2023-02-06T01:00:48.422Z,32.83
2023-02-06T01:03:17.122Z,32.47
2023-02-06T01:06:11.259Z,34.25
2023-02-06T01:08:39.300Z,34.75
2023-02-06T01:11:11.647Z,33.28
2023-02-06T01:13:39.987Z,34.47
2023-02-06T01:16:09.910Z,35.58
2023-02-06T01:18:37.893Z,37.22
2023-02-06T01:21:11.173Z,35.25
2023-02-06T01:23:40.279Z,36.33
2023-02-06T01:26:09.665Z,35.88
2023-02-06T01:28:37.848Z,34.28
2023-02-06T01:31:11.375Z,41.30
2023-02-06T01:33:39.457Z,35.92
2023-02-06T01:36:07.970Z,34.67
2023-02-06T01:38:37.177Z,38.15
2023-02-06T01:41:06.583Z,34.78
2023-02-06T01:43:36.401Z,36.88
2023-02-06T01:46:05.069Z,36.60
2023-02-06T01:48:38.346Z,37.88
2023-02-06T01:51:08.414Z,38.22
2023-02-06T01:53:37.761Z,35.60
2023-02-06T01:56:08.173Z,48.53
2023-02-06T01:58:39.595Z,40.83
2023-02-06T02:01:08.849Z,35.25
2023-02-06T02:03:40.448Z,40.00
2023-02-06T02:06:10.568Z,37.78
2023-02-06T02:08:41.728Z,36.05
2023-02-06T02:11:11.963Z,37.55
2023-02-06T02:13:40.442Z,42.72
2023-02-06T02:16:16.248Z,40.85
2023-02-06T02:19:05.844Z,39.78
2023-02-06T02:22:03.439Z,37.28
2023-02-06T02:24:49.780Z,43.88
2023-02-06T02:27:49.493Z,40.90
2023-02-06T02:30:56.299Z,38.00
2023-02-06T02:33:53.852Z,47.25
2023-02-06T02:36:29.637Z,58.70
2023-02-06T02:39:08.484Z,45.15
2023-02-06T02:41:44.404Z,38.92
2023-02-06T02:44:17.409Z,48.80
2023-02-06T02:46:47.760Z,64.30
2023-02-06T02:49:19.300Z,54.60
2023-02-06T02:51:50.174Z,49.08
2023-02-06T02:54:18.269Z,35.35
2023-02-06T02:56:46.226Z,57.80
2023-02-06T02:59:19.243Z,49.45
2023-02-06T03:01:50.819Z,53.92
2023-02-06T03:04:24.295Z,47.58
2023-02-06T03:07:05.100Z,42.85
2023-02-06T03:09:46.633Z,53.85
2023-02-06T03:12:20.674Z,48.13
2023-02-06T03:14:54.984Z,56.67
2023-02-06T03:17:31.460Z,57.58
2023-02-06T03:20:02.082Z,51.00
2023-02-06T03:22:33.766Z,59.80
2023-02-06T03:25:03.631Z,62.60
2023-02-06T03:27:33.234Z,45.55
2023-02-06T03:30:04.124Z,47.05
2023-02-06T03:32:35.046Z,51.35
2023-02-06T03:35:07.892Z,50.85
2023-02-06T03:37:39.134Z,56.65
2023-02-06T03:40:09.199Z,53.17
2023-02-06T03:42:40.668Z,54.47
2023-02-06T03:45:14.053Z,45.67
2023-02-06T03:47:45.318Z,46.33
2023-02-06T03:50:14.961Z,48.20
2023-02-06T03:52:48.499Z,43.90
2023-02-06T03:55:21.134Z,45.75
2023-02-06T03:57:52.398Z,52.50
2023-02-06T04:00:21.024Z,43.40
2023-02-06T04:02:49.795Z,43.88
2023-02-06T04:05:18.643Z,42.22
2023-02-06T04:07:48.109Z,44.30
2023-02-06T04:10:16.170Z,46.85
2023-02-06T04:12:44.000Z,42.72
2023-02-06T04:15:11.949Z,45.30
2023-02-06T04:17:53.565Z,40.95
2023-02-06T04:20:25.818Z,36.80
2023-02-06T04:22:55.028Z,40.72
2023-02-06T04:25:22.929Z,37.95
2023-02-06T04:27:51.256Z,36.25
2023-02-06T04:30:19.742Z,40.13
2023-02-06T04:32:47.632Z,34.55
2023-02-06T04:35:15.460Z,37.30
2023-02-06T04:37:43.400Z,38.63
2023-02-06T04:40:13.689Z,35.58
2023-02-06T04:42:41.520Z,38.70
2023-02-06T04:45:10.209Z,39.17
2023-02-06T04:47:38.052Z,39.70
2023-02-06T04:50:06.759Z,36.42
2023-02-06T04:52:34.763Z,45.75
2023-02-06T04:55:02.724Z,35.67
2023-02-06T04:57:31.937Z,34.70
2023-02-06T04:59:59.850Z,37.08
2023-02-06T05:02:27.770Z,37.50
2023-02-06T05:04:55.641Z,33.97
2023-02-06T05:07:23.505Z,38.67
2023-02-06T05:09:51.358Z,34.00
2023-02-06T05:12:19.261Z,37.92
2023-02-06T05:14:48.460Z,39.05
2023-02-06T05:17:16.292Z,37.90
2023-02-06T05:19:44.323Z,42.60
2023-02-06T05:22:12.145Z,39.17
2023-02-06T05:24:39.977Z,42.17
2023-02-06T05:27:07.809Z,47.17
2023-02-06T05:29:35.749Z,44.38
2023-02-06T05:32:05.153Z,44.08
2023-02-06T05:34:33.117Z,42.85
2023-02-06T05:37:01.169Z,40.60
2023-02-06T05:39:29.293Z,39.35
2023-02-06T05:41:57.140Z,40.08
2023-02-06T05:44:25.187Z,40.47
2023-02-06T05:46:54.287Z,41.88
2023-02-06T05:49:23.495Z,43.53
2023-02-06T05:51:51.501Z,38.42
2023-02-06T05:54:22.378Z,43.50
2023-02-06T05:56:50.342Z,37.15
2023-02-06T05:59:18.261Z,40.72
2023-02-06T06:01:46.175Z,37.88
2023-02-06T06:04:14.076Z,39.92
2023-02-06T06:06:43.333Z,38.17
2023-02-06T06:09:11.162Z,41.83
2023-02-06T06:11:39.244Z,36.97
2023-02-06T06:14:07.740Z,36.65
2023-02-06T06:16:35.673Z,39.80
2023-02-06T06:19:03.662Z,35.97
2023-02-06T06:21:31.537Z,37.70
2023-02-06T06:24:01.249Z,40.03
2023-02-06T06:26:29.601Z,37.90
2023-02-06T06:28:57.756Z,40.17
2023-02-06T06:31:25.701Z,36.67
2023-02-06T06:33:54.201Z,38.50
2023-02-06T06:36:22.122Z,37.38
2023-02-06T06:38:50.280Z,36.08
2023-02-06T06:41:19.525Z,37.17
2023-02-06T06:43:47.471Z,29.95
2023-02-06T06:46:15.386Z,27.40
2023-02-06T06:48:43.280Z,27.38
2023-02-06T06:51:11.169Z,28.15
2023-02-06T06:53:40.025Z,27.65
2023-02-06T06:56:11.119Z,29.88
2023-02-06T06:58:40.467Z,31.88
2023-02-06T07:01:08.704Z,36.85
2023-02-06T07:03:36.819Z,36.22
2023-02-06T07:06:05.042Z,37.67
2023-02-06T07:08:32.913Z,36.47
2023-02-06T07:11:03.805Z,35.90
2023-02-06T07:13:31.678Z,36.85
2023-02-06T07:16:00.885Z,36.15
2023-02-06T07:18:28.704Z,35.08
2023-02-06T07:20:56.561Z,32.72
2023-02-06T07:23:24.458Z,34.03
2023-02-06T07:25:52.394Z,32.35
2023-02-06T07:28:20.269Z,31.42
2023-02-06T07:30:48.162Z,32.72
2023-02-06T07:33:17.360Z,30.95
2023-02-06T07:35:45.192Z,30.17
2023-02-06T07:38:13.028Z,28.73
2023-02-06T07:40:45.213Z,32.63
2023-02-06T07:43:13.539Z,28.38
2023-02-06T07:45:41.673Z,30.02
2023-02-06T07:48:09.683Z,26.00
2023-02-06T07:50:39.306Z,27.73
2023-02-06T07:53:07.824Z,28.98
2023-02-06T07:55:38.319Z,28.23
2023-02-06T07:58:06.540Z,25.88
2023-02-06T08:00:34.447Z,26.60
2023-02-06T08:03:02.339Z,25.83
2023-02-06T08:05:31.175Z,24.85
2023-02-06T08:08:00.650Z,23.95
2023-02-06T08:10:29.483Z,25.48
2023-02-06T08:12:57.373Z,22.92
2023-02-06T08:15:25.332Z,24.33
2023-02-06T08:17:53.483Z,23.10
2023-02-06T08:20:21.428Z,21.27
2023-02-06T08:22:49.277Z,21.77
2023-02-06T08:25:18.828Z,21.23
2023-02-06T08:27:46.711Z,22.75
2023-02-06T08:30:15.002Z,20.77
2023-02-06T08:32:42.825Z,20.08
2023-02-06T08:35:10.678Z,20.23
2023-02-06T08:37:38.595Z,18.75
2023-02-06T08:40:07.472Z,19.83
2023-02-06T08:42:36.938Z,18.90
2023-02-06T08:45:05.397Z,19.05
2023-02-06T08:47:33.214Z,18.75
2023-02-06T08:50:03.215Z,20.95
2023-02-06T08:52:31.489Z,21.05
2023-02-06T08:54:59.351Z,19.35
2023-02-06T08:57:27.186Z,20.95
2023-02-06T08:59:56.774Z,19.92
2023-02-06T09:02:24.683Z,19.90
2023-02-06T09:04:52.578Z,19.02
2023-02-06T09:07:21.659Z,19.17
2023-02-06T09:09:49.513Z,18.77
2023-02-06T09:12:17.614Z,16.55
2023-02-06T09:14:45.798Z,16.65
2023-02-06T09:17:15.051Z,15.85
2023-02-06T09:19:42.991Z,13.73
2023-02-06T09:22:10.875Z,15.75
2023-02-06T09:24:39.156Z,13.02
2023-02-06T09:27:07.023Z,11.27
2023-02-06T09:29:35.092Z,11.23
2023-02-06T09:32:03.103Z,14.77
2023-02-06T09:34:32.336Z,12.93
2023-02-06T09:37:03.055Z,9.98
2023-02-06T09:39:31.406Z,10.43
2023-02-06T09:42:04.944Z,10.45
2023-02-06T09:44:35.302Z,10.38
2023-02-06T09:47:11.588Z,9.30
2023-02-06T09:49:45.227Z,10.95
2023-02-06T09:52:31.760Z,11.90
2023-02-06T09:55:11.247Z,11.65
2023-02-06T09:57:46.871Z,12.38
2023-02-06T10:00:28.743Z,11.52
2023-02-06T10:03:18.156Z,10.45
2023-02-06T10:05:54.501Z,10.65
2023-02-06T10:08:26.252Z,10.73
2023-02-06T10:10:56.906Z,11.90
2023-02-06T10:13:30.962Z,12.18
2023-02-06T10:16:05.561Z,10.57
2023-02-06T10:18:38.879Z,10.40
2023-02-06T10:21:14.636Z,9.52
2023-02-06T10:23:47.636Z,10.05
2023-02-06T10:26:18.245Z,9.93
2023-02-06T10:28:49.460Z,9.15
2023-02-06T10:31:39.382Z,9.75
2023-02-06T10:34:34.221Z,9.88
2023-02-06T10:37:16.786Z,6.88
2023-02-06T10:40:02.671Z,7.28
2023-02-06T10:42:42.326Z,6.00
2023-02-06T10:45:20.307Z,5.47
2023-02-06T10:47:55.025Z,5.63
2023-02-06T10:50:28.882Z,5.80
2023-02-06T10:53:02.773Z,5.85
2023-02-06T10:55:38.383Z,5.68
2023-02-06T10:58:15.443Z,5.97
2023-02-06T11:00:45.038Z,6.00
2023-02-06T11:03:16.762Z,5.38
2023-02-06T11:05:44.649Z,5.90
2023-02-06T11:08:21.449Z,6.35
2023-02-06T11:10:49.664Z,5.95
2023-02-06T11:13:26.614Z,6.25
2023-02-06T11:16:01.669Z,6.13
2023-02-06T11:18:34.198Z,6.03
2023-02-06T11:21:02.540Z,6.00
2023-02-06T11:23:34.566Z,5.57
2023-02-06T11:26:10.632Z,6.25
2023-02-06T11:28:41.406Z,6.68
2023-02-06T11:31:10.436Z,6.18
2023-02-06T11:33:46.824Z,6.95
2023-02-06T11:36:28.673Z,6.90
2023-02-06T11:39:00.548Z,6.13
2023-02-06T11:41:29.317Z,6.22
2023-02-06T11:44:02.509Z,6.47
2023-02-06T11:46:32.394Z,9.20
2023-02-06T11:49:07.015Z,6.20
2023-02-06T11:51:51.466Z,5.63
2023-02-06T11:54:23.846Z,6.63
2023-02-06T11:57:03.283Z,5.82
2023-02-06T11:59:34.358Z,5.95
2023-02-06T12:02:05.699Z,6.00
2023-02-06T12:04:39.033Z,6.40
2023-02-06T12:07:13.809Z,6.88
2023-02-06T12:09:43.280Z,6.18
2023-02-06T12:12:23.108Z,6.22
2023-02-06T12:14:56.415Z,5.88
2023-02-06T12:17:31.809Z,6.95
2023-02-06T12:20:06.787Z,6.65
2023-02-06T12:22:40.707Z,6.55
2023-02-06T12:25:26.011Z,7.03
2023-02-06T12:27:57.899Z,6.90
2023-02-06T12:30:37.990Z,6.32
2023-02-06T12:33:13.077Z,6.45
2023-02-06T12:35:45.039Z,6.50
2023-02-06T12:38:20.148Z,6.78
2023-02-06T12:40:56.843Z,6.63
2023-02-06T12:43:24.894Z,6.85
2023-02-06T12:45:59.758Z,7.68
2023-02-06T12:48:41.476Z,7.78
2023-02-06T12:51:18.640Z,7.45
2023-02-06T12:53:51.066Z,8.10
2023-02-06T12:56:27.788Z,7.05
2023-02-06T12:59:07.538Z,8.63
2023-02-06T13:01:50.149Z,8.07
2023-02-06T13:04:23.549Z,8.48
2023-02-06T13:06:55.556Z,8.38
2023-02-06T13:09:27.052Z,7.72
2023-02-06T13:11:55.457Z,6.65
2023-02-06T13:14:25.538Z,6.97
2023-02-06T13:16:56.690Z,6.13
2023-02-06T13:19:48.082Z,7.63
2023-02-06T13:22:44.868Z,7.13
2023-02-06T13:25:54.692Z,7.20
2023-02-06T13:28:57.061Z,6.70
2023-02-06T13:31:35.450Z,6.70
2023-02-06T13:34:14.046Z,6.38
2023-02-06T13:36:54.178Z,6.10
2023-02-06T13:39:31.940Z,5.97
2023-02-06T13:42:24.108Z,5.93
2023-02-06T13:44:53.455Z,5.60
2023-02-06T13:48:07.748Z,5.70
2023-02-06T13:51:29.389Z,5.95
2023-02-06T13:54:34.573Z,5.70
2023-02-06T13:57:49.881Z,5.55
2023-02-06T14:00:20.616Z,4.68
2023-02-06T14:02:50.946Z,7.90
2023-02-06T14:05:22.904Z,5.47
2023-02-06T14:08:07.575Z,5.97
2023-02-06T14:10:54.050Z,5.60
2023-02-06T14:13:47.094Z,5.50
2023-02-06T14:16:31.757Z,5.68
2023-02-06T14:19:02.997Z,4.90
2023-02-06T14:21:44.101Z,5.80
2023-02-06T14:24:34.518Z,5.55
2023-02-06T14:27:19.301Z,4.60
2023-02-06T14:29:56.116Z,5.50
2023-02-06T14:32:36.610Z,5.15
2023-02-06T14:35:28.769Z,5.20
2023-02-06T14:38:22.125Z,5.57
2023-02-06T14:40:52.696Z,6.13
2023-02-06T14:43:26.528Z,5.47
2023-02-06T14:46:06.917Z,5.70
2023-02-06T14:48:40.999Z,6.45
2023-02-06T14:51:19.134Z,6.07
2023-02-06T14:53:54.024Z,6.63
2023-02-06T14:56:28.732Z,6.88
2023-02-06T14:59:08.206Z,6.50
2023-02-06T15:01:36.060Z,6.05
2023-02-06T15:04:14.256Z,6.00
2023-02-06T15:06:45.014Z,7.07
2023-02-06T15:09:25.507Z,6.90
2023-02-06T15:11:54.599Z,6.53
2023-02-06T15:14:25.428Z,6.32
2023-02-06T15:16:56.857Z,8.48
2023-02-06T15:19:26.891Z,6.80
2023-02-06T15:22:00.468Z,7.43
2023-02-06T15:24:44.602Z,7.75
2023-02-06T15:27:23.533Z,6.82
2023-02-06T15:29:53.563Z,6.50
2023-02-06T15:32:29.517Z,6.53
2023-02-06T15:34:57.522Z,7.30
2023-02-06T15:37:28.940Z,7.07
2023-02-06T15:40:06.674Z,8.02
2023-02-06T15:42:34.853Z,7.63
2023-02-06T15:45:05.320Z,7.72
2023-02-06T15:47:33.982Z,7.88
2023-02-06T15:50:01.994Z,7.25
2023-02-06T15:52:36.026Z,7.65
2023-02-06T15:55:04.759Z,7.32
2023-02-06T15:57:34.861Z,6.82
2023-02-06T16:00:09.499Z,6.13
2023-02-06T16:02:40.556Z,5.55
2023-02-06T16:05:19.630Z,6.93
2023-02-06T16:07:49.522Z,7.22
2023-02-06T16:10:23.504Z,7.05
2023-02-06T16:12:52.504Z,7.28
2023-02-06T16:15:31.988Z,6.45
2023-02-06T16:18:01.706Z,6.75
2023-02-06T16:20:36.961Z,6.03
2023-02-06T16:23:26.381Z,8.18
2023-02-06T16:26:07.314Z,7.63
2023-02-06T16:28:42.954Z,8.23
2023-02-06T16:31:15.164Z,8.18
2023-02-06T16:33:45.093Z,8.80
2023-02-06T16:36:14.567Z,8.52
2023-02-06T16:38:48.270Z,8.55
2023-02-06T16:41:31.102Z,8.07
2023-02-06T16:43:59.908Z,8.20
2023-02-06T16:46:29.713Z,8.32
2023-02-06T16:48:59.140Z,8.30
2023-02-06T16:51:33.027Z,8.77
2023-02-06T16:54:00.865Z,9.00
2023-02-06T16:56:28.722Z,7.47
2023-02-06T16:58:56.549Z,6.80
2023-02-06T17:01:26.516Z,8.25
2023-02-06T17:03:56.427Z,6.60
2023-02-06T17:06:26.872Z,6.82
2023-02-06T17:08:58.071Z,6.75
2023-02-06T17:11:26.216Z,6.93
2023-02-06T17:13:54.205Z,12.13
2023-02-06T17:16:24.115Z,12.95
2023-02-06T17:18:52.548Z,9.20
2023-02-06T17:21:24.001Z,9.07
2023-02-06T17:23:52.448Z,11.88
2023-02-06T17:26:22.551Z,11.02
2023-02-06T17:28:51.552Z,8.70
2023-02-06T17:31:19.756Z,10.07
2023-02-06T17:33:47.711Z,9.05
2023-02-06T17:36:18.026Z,8.05
2023-02-06T17:38:47.282Z,9.70
2023-02-06T17:41:15.191Z,8.15
2023-02-06T17:43:43.001Z,8.85
2023-02-06T17:46:13.126Z,8.40
2023-02-06T17:48:42.708Z,7.47
2023-02-06T17:51:10.714Z,7.95
2023-02-06T17:53:38.986Z,7.60
2023-02-06T17:56:11.972Z,7.78
2023-02-06T17:58:40.413Z,8.15
2023-02-06T18:01:11.727Z,7.82
2023-02-06T18:03:39.598Z,7.03
2023-02-06T18:06:07.982Z,6.60
2023-02-06T18:08:36.032Z,7.05
2023-02-06T18:11:11.483Z,7.40
2023-02-06T18:13:39.670Z,6.53
2023-02-06T18:16:08.412Z,6.72
2023-02-06T18:18:36.482Z,6.53
2023-02-06T18:21:04.411Z,6.90
2023-02-06T18:23:32.229Z,7.35
2023-02-06T18:26:03.341Z,6.97
2023-02-06T18:28:33.545Z,6.70
2023-02-06T18:31:02.096Z,6.53
2023-02-06T18:33:30.138Z,7.18
2023-02-06T18:35:58.375Z,6.75
2023-02-06T18:38:26.220Z,6.20
2023-02-06T18:40:54.041Z,7.30
2023-02-06T18:43:20.889Z,5.20
2023-02-06T18:45:50.056Z,5.50
2023-02-06T18:48:17.856Z,5.47
2023-02-06T18:50:45.677Z,5.97
2023-02-06T18:53:13.494Z,5.38
2023-02-06T18:55:41.338Z,5.80
2023-02-06T18:58:09.587Z,5.78
2023-02-06T19:00:37.823Z,6.65
2023-02-06T19:03:07.309Z,4.32
2023-02-06T19:05:37.370Z,4.72
2023-02-06T19:08:05.403Z,4.20
2023-02-06T19:10:33.327Z,4.70
2023-02-06T19:13:01.187Z,4.38
2023-02-06T19:15:30.139Z,4.78
2023-02-06T19:17:57.991Z,5.60
2023-02-06T19:20:27.952Z,5.03
2023-02-06T19:22:56.984Z,6.13
2023-02-06T19:25:24.927Z,6.47
2023-02-06T19:27:52.750Z,6.40
2023-02-06T19:30:20.724Z,6.85
2023-02-06T19:32:48.728Z,5.72
2023-02-06T19:35:17.169Z,6.57
2023-02-06T19:37:46.319Z,10.18
2023-02-06T19:40:14.137Z,7.38
2023-02-06T19:42:41.999Z,7.32
2023-02-06T19:45:09.946Z,7.57
2023-02-06T19:47:38.014Z,8.70
2023-02-06T19:50:06.575Z,8.27
2023-02-06T19:52:35.200Z,9.57
2023-02-06T19:55:04.516Z,8.75
2023-02-06T19:57:32.369Z,8.50
2023-02-06T20:00:00.169Z,8.52
2023-02-06T20:02:28.084Z,9.85
2023-02-06T20:04:55.938Z,9.40
2023-02-06T20:07:23.779Z,9.70
2023-02-06T20:09:52.198Z,10.57
2023-02-06T20:12:21.368Z,10.23
2023-02-06T20:14:49.186Z,8.88
2023-02-06T20:17:18.054Z,9.35
2023-02-06T20:19:45.933Z,8.77
2023-02-06T20:22:13.813Z,9.25
2023-02-06T20:24:41.604Z,8.60
2023-02-06T20:27:12.311Z,9.65
2023-02-06T20:29:42.988Z,9.95
2023-02-06T20:32:11.953Z,10.07
2023-02-06T20:34:39.849Z,9.95
2023-02-06T20:37:07.704Z,9.95
2023-02-06T20:39:35.610Z,10.30
2023-02-06T20:42:03.593Z,8.85
2023-02-06T20:44:31.913Z,9.10
2023-02-06T20:47:01.123Z,8.52
2023-02-06T20:49:31.129Z,8.95
2023-02-06T20:51:59.587Z,9.90
2023-02-06T20:54:27.428Z,8.68
2023-02-06T20:56:55.268Z,10.52
2023-02-06T20:59:23.418Z,10.20
2023-02-06T21:01:51.250Z,9.70
2023-02-06T21:04:21.066Z,10.45
2023-02-06T21:06:50.129Z,10.57
2023-02-06T21:09:19.124Z,10.13
2023-02-06T21:11:49.867Z,10.00
2023-02-06T21:14:17.829Z,11.30
2023-02-06T21:16:45.858Z,10.38
2023-02-06T21:19:16.161Z,10.43
2023-02-06T21:21:46.431Z,10.57
2023-02-06T21:24:15.452Z,10.57
2023-02-06T21:26:43.626Z,11.13
2023-02-06T21:29:12.085Z,10.80
2023-02-06T21:31:40.104Z,11.07
2023-02-06T21:34:09.983Z,11.98
2023-02-06T21:36:39.141Z,10.75
2023-02-06T21:39:09.515Z,10.95
2023-02-06T21:41:37.699Z,12.15
2023-02-06T21:44:05.993Z,10.57
2023-02-06T21:46:34.423Z,10.93
2023-02-06T21:49:02.277Z,11.55
2023-02-06T21:51:30.812Z,11.48
2023-02-06T21:53:58.797Z,12.40
2023-02-06T21:56:29.040Z,10.77
2023-02-06T21:58:57.385Z,11.70
2023-02-06T22:01:27.147Z,12.40
2023-02-06T22:03:55.514Z,12.23
2023-02-06T22:06:23.606Z,11.50
2023-02-06T22:08:53.387Z,12.13
2023-02-06T22:11:23.218Z,12.13
2023-02-06T22:13:53.281Z,11.35
2023-02-06T22:16:23.297Z,11.70
2023-02-06T22:18:51.648Z,12.63
2023-02-06T22:21:21.399Z,11.65
2023-02-06T22:23:50.521Z,11.75
2023-02-06T22:26:20.457Z,13.02
2023-02-06T22:28:48.919Z,11.70
2023-02-06T22:31:20.208Z,10.93
2023-02-06T22:33:48.653Z,12.50
2023-02-06T22:36:18.293Z,11.82
2023-02-06T22:38:47.538Z,10.55
2023-02-06T22:41:17.716Z,10.35
2023-02-06T22:43:47.004Z,10.95
2023-02-06T22:46:21.093Z,10.77
2023-02-06T22:48:49.030Z,11.00
2023-02-06T22:51:17.426Z,11.57
2023-02-06T22:53:45.676Z,11.00
2023-02-06T22:56:32.075Z,10.60
2023-02-06T22:59:01.927Z,12.75
2023-02-06T23:01:34.084Z,12.43
2023-02-06T23:04:03.561Z,12.43
2023-02-06T23:06:32.932Z,12.93
2023-02-06T23:09:02.553Z,12.23
2023-02-06T23:11:31.800Z,11.48
2023-02-06T23:14:02.114Z,12.65
2023-02-06T23:16:33.100Z,11.77
2023-02-06T23:19:04.380Z,11.60
2023-02-06T23:21:33.482Z,11.65
2023-02-06T23:24:01.733Z,11.45
2023-02-06T23:26:30.543Z,13.43
2023-02-06T23:28:59.682Z,12.63
2023-02-06T23:31:28.277Z,11.88
2023-02-06T23:33:57.839Z,12.10
2023-02-06T23:36:27.215Z,11.80
2023-02-06T23:38:55.440Z,11.70
2023-02-06T23:41:24.999Z,12.63
2023-02-06T23:43:54.262Z,13.80
2023-02-06T23:46:22.915Z,12.15
2023-02-06T23:48:51.183Z,11.82
2023-02-06T23:51:21.902Z,10.07
2023-02-06T23:53:50.494Z,9.55
2023-02-06T23:56:20.307Z,9.60
2023-02-06T23:58:48.455Z,9.35
